CheckWX is a tool to help pilots better visualize weather data.  It is not intended as a substitute for an official pre-flight weather briefing.

08:01:07 UTC

PASC METAR
Deadhorse Airport
Deadhorse, Alaska, USA
Current

8 mins ago

PASC 260753Z 22015KT 8SM BKN065 M31/M34 A3026 RMK AO2 SLP249 T13061339
Observed
Jan-26 @ 07:53 UTC
Wind
  • 220° at 15 KTS
Visibility
8 SM
Flight Rules
VFR
Cloud Levels
  • Broken at 6,500' AGL
Temperature
-31°C / -24°F
Dewpoint
-34°C / -29°F
Humidity
75%
Altimeter
30.26" Hg
Pressure
1024.72 hPa
Previous

1 hour ago

PASC 260653Z 23016KT 4SM BR BKN045 OVC065 M29/M33 A3027 RMK AO2 SNB34E45 SLP253 T12941328
Observed
Jan-26 @ 06:53 UTC
Wind
  • 230° at 16 KTS
Visibility
4 SM
Flight Rules
MVFR
Conditions
Mist
Cloud Levels
  • Broken at 4,500' AGL
  • Overcast at 6,500' AGL
Temperature
-29°C / -20°F
Dewpoint
-33°C / -27°F
Humidity
68%
Altimeter
30.27" Hg
Pressure
1025.02 hPa
Previous

2 hours ago

PASC 260553Z 23015KT 3SM BR BKN039 OVC070 M31/M34 A3028 RMK AO2 SLP257 T13061339 11300 21333 56008
Observed
Jan-26 @ 05:53 UTC
Wind
  • 230° at 15 KTS
Visibility
3 SM
Flight Rules
MVFR
Conditions
Mist
Cloud Levels
  • Broken at 3,900' AGL
  • Overcast at 7,000' AGL
Temperature
-31°C / -24°F
Dewpoint
-34°C / -29°F
Humidity
75%
Altimeter
30.28" Hg
Pressure
1025.42 hPa